Time;durP1;ratioP1;P1;durP2;ratioP2;P2;SDS_P1;SDS_P2;PMS_P1;PMS_P2;Temp;Humidity;BMP_temperature;BMP_pressure;BME280_temperature;BME280_humidity;BME280_pressure;Samples;Min_cycle;Max_cycle;Signal;HPM_P1;HPM_P2
2022/03/18 00:02:17;;;;;;;20.65;14.30;;;8.80;99.90;;;9.30;70.51;103764.78;5113290;28;20039;-64
2022/03/18 00:04:46;;;;;;;24.10;13.88;;;9.00;99.90;;;9.66;69.36;103782.31;5113142;28;20032;-64
2022/03/18 00:07:15;;;;;;;20.42;12.38;;;9.30;99.90;;;9.83;68.84;103773.41;5113466;28;20461;-65
2022/03/18 00:09:44;;;;;;;21.63;11.93;;;9.50;99.90;;;9.89;68.68;103786.03;5095093;28;20100;-64
2022/03/18 00:12:13;;;;;;;24.40;17.70;;;9.50;99.90;;;9.95;68.62;103786.28;5095252;28;20400;-64
2022/03/18 00:14:42;;;;;;;25.55;15.82;;;9.60;99.90;;;10.06;68.21;103800.00;5113477;28;20043;-65
2022/03/18 00:17:12;;;;;;;24.25;12.85;;;9.80;99.90;;;10.17;67.62;103796.13;5113224;28;20078;-65
2022/03/18 00:19:42;;;;;;;23.70;13.85;;;9.90;99.90;;;10.24;66.65;103795.56;5113159;28;20064;-65
2022/03/18 00:22:12;;;;;;;21.92;13.30;;;10.00;99.90;;;10.34;66.08;103803.03;5113437;28;20036;-65
2022/03/18 00:24:41;;;;;;;22.10;13.80;;;10.10;99.90;;;10.32;66.44;103800.34;5113220;28;20039;-65
2022/03/18 00:27:10;;;;;;;19.17;13.73;;;10.10;99.90;;;10.29;67.41;103794.00;5113101;28;20086;-64
2022/03/18 00:29:38;;;;;;;20.48;14.90;;;10.10;99.90;;;10.27;67.49;103800.97;5095141;28;20083;-65
2022/03/18 00:32:08;;;;;;;24.77;17.08;;;10.00;99.90;;;10.27;67.52;103807.19;5113346;28;20048;-64
2022/03/18 00:34:37;;;;;;;21.48;16.70;;;10.10;99.90;;;10.19;67.59;103810.31;5113623;28;20046;-65
2022/03/18 00:37:06;;;;;;;17.08;15.38;;;9.90;99.90;;;10.20;68.50;103813.03;5113256;28;20370;-64
2022/03/18 00:39:35;;;;;;;17.10;13.77;;;9.90;99.90;;;10.22;68.38;103806.06;5113196;28;20509;-64
2022/03/18 00:42:06;;;;;;;24.83;13.65;;;9.90;99.90;;;10.18;67.46;103806.75;5112954;28;20036;-65
2022/03/18 00:44:35;;;;;;;16.73;14.23;;;9.90;99.90;;;10.15;68.04;103800.44;5112996;28;20058;-64
2022/03/18 00:51:58;;;;;;;17.40;13.82;;;9.90;99.90;;;10.14;68.30;103803.94;5114936;28;20050;-65
2022/03/18 00:52:39;;;;;;;20.00;17.95;;;9.60;99.90;;;9.82;68.53;103803.34;5116771;28;20520;-65
2022/03/18 00:55:09;;;;;;;19.63;16.38;;;9.50;99.90;;;9.84;68.79;103800.78;5116641;28;20127;-65
2022/03/18 00:57:38;;;;;;;19.13;13.37;;;9.50;99.90;;;9.95;68.33;103797.78;5116628;28;20073;-65
2022/03/18 01:00:08;;;;;;;17.80;14.90;;;9.60;99.90;;;9.82;68.34;103810.38;5116523;28;20486;-65
2022/03/18 01:02:37;;;;;;;19.20;14.32;;;9.60;99.90;;;9.80;68.67;103812.03;5117020;28;20040;-65
2022/03/18 01:05:06;;;;;;;21.17;14.13;;;9.50;99.90;;;9.68;67.57;103807.09;5116210;28;20058;-65
2022/03/18 01:07:35;;;;;;;24.03;15.23;;;9.40;99.90;;;9.54;67.30;103808.19;5117014;28;20085;-65
2022/03/18 01:10:04;;;;;;;21.70;15.13;;;9.20;99.90;;;9.62;67.28;103814.72;5116311;28;20461;-64
2022/03/18 01:12:33;;;;;;;22.92;13.05;;;9.20;99.90;;;9.69;67.13;103816.84;5116265;28;20400;-64
2022/03/18 01:15:03;;;;;;;18.38;14.45;;;9.30;99.90;;;9.71;67.55;103815.19;5116491;28;20047;-65
2022/03/18 01:17:33;;;;;;;23.42;14.88;;;9.30;99.90;;;9.80;67.59;103814.69;5116533;28;20489;-64
2022/03/18 01:20:01;;;;;;;15.43;10.45;;;9.40;99.90;;;9.93;66.80;103803.81;5116070;28;20454;-64
2022/03/18 01:22:30;;;;;;;20.05;12.55;;;9.60;99.90;;;9.93;66.38;103802.09;5116364;28;20075;-65
2022/03/18 01:24:58;;;;;;;18.98;14.18;;;9.60;99.90;;;9.95;66.60;103800.41;5116201;28;20047;-64
2022/03/18 01:27:26;;;;;;;14.05;9.60;;;9.70;99.90;;;10.12;66.04;103811.81;5116251;28;20497;-65
2022/03/18 01:29:55;;;;;;;16.88;11.48;;;9.80;99.90;;;10.17;65.68;103804.06;5116162;28;20445;-65
2022/03/18 01:32:24;;;;;;;15.15;11.88;;;9.90;99.90;;;10.22;65.38;103810.47;5115905;28;20557;-64
2022/03/18 01:34:54;;;;;;;16.40;13.03;;;9.90;99.90;;;10.12;65.94;103819.75;5115855;28;20447;-65
2022/03/18 01:37:22;;;;;;;17.77;14.45;;;9.80;99.90;;;9.93;66.57;103822.31;5116018;28;20126;-65
2022/03/18 01:39:50;;;;;;;19.02;15.52;;;9.70;99.90;;;9.51;66.97;103818.63;5115916;28;20036;-65
2022/03/18 01:42:19;;;;;;;22.63;16.10;;;9.30;99.90;;;9.38;66.77;103821.50;5115737;28;20508;-64
2022/03/18 01:44:47;;;;;;;23.00;15.57;;;9.10;99.90;;;9.28;67.55;103823.63;5115931;28;20050;-65
2022/03/18 01:47:16;;;;;;;19.52;15.23;;;9.00;99.90;;;9.19;67.36;103824.09;5115589;28;20032;-64
2022/03/18 01:49:46;;;;;;;22.73;14.52;;;8.90;99.90;;;8.97;67.84;103815.94;5097545;28;20043;-64
2022/03/18 01:52:14;;;;;;;19.83;13.90;;;8.80;99.90;;;9.06;68.39;103814.66;5097643;28;20404;-64
2022/03/18 01:54:47;;;;;;;17.35;14.25;;;8.70;99.90;;;8.98;70.00;103813.38;5115781;28;20075;-64
2022/03/18 01:57:20;;;;;;;13.70;11.23;;;8.60;99.90;;;8.77;70.69;103807.03;5115756;28;20085;-65
2022/03/18 01:59:49;;;;;;;14.85;11.30;;;8.50;99.90;;;8.76;70.99;103817.53;5114926;28;20104;-64
2022/03/18 02:02:18;;;;;;;11.65;10.45;;;8.40;99.90;;;8.70;71.46;103812.84;5115609;28;20059;-64
2022/03/18 02:04:49;;;;;;;13.68;12.30;;;8.30;99.90;;;8.60;71.23;103813.22;5115303;28;20040;-64
2022/03/18 02:07:19;;;;;;;11.93;10.40;;;8.30;99.90;;;8.52;71.28;103808.34;5115321;28;20039;-64
2022/03/18 02:09:47;;;;;;;17.80;8.33;;;8.20;99.90;;;8.66;71.78;103807.34;5097213;28;20043;-64
2022/03/18 02:12:15;;;;;;;18.15;8.57;;;8.20;99.90;;;8.59;71.07;103807.88;5115391;28;20778;-64
2022/03/18 02:14:46;;;;;;;15.55;8.68;;;8.20;99.90;;;8.46;70.91;103813.34;5115634;28;20040;-64
2022/03/18 02:17:16;;;;;;;;;;;8.10;99.90;;;8.50;70.69;103824.13;5115837;28;20051;-64
2022/03/18 02:19:46;;;;;;;14.02;7.43;;;8.10;99.90;;;8.69;70.08;103824.22;5115508;28;19927;-64
2022/03/18 02:22:20;;;;;;;13.13;7.63;;;8.30;99.90;;;8.85;69.40;103828.53;5115145;28;20043;-64
2022/03/18 02:24:52;;;;;;;13.32;7.45;;;8.40;99.90;;;8.90;69.07;103827.06;5114886;28;20039;-64
2022/03/18 02:27:20;;;;;;;15.02;7.93;;;8.60;99.90;;;9.04;68.29;103844.47;5114900;28;20044;-64
2022/03/18 02:29:49;;;;;;;14.70;7.25;;;8.70;99.90;;;9.19;67.74;103845.25;5114797;28;20508;-64
2022/03/18 02:32:18;;;;;;;15.68;7.32;;;8.80;99.90;;;9.21;66.87;103851.50;5114752;28;20105;-64
2022/03/18 02:34:46;;;;;;;14.95;7.70;;;8.90;99.90;;;9.34;66.85;103851.25;5114688;28;20108;-64
2022/03/18 02:37:15;;;;;;;11.93;6.68;;;9.00;99.90;;;9.41;66.66;103850.72;5114625;28;20501;-64
2022/03/18 02:39:44;;;;;;;14.07;7.93;;;9.10;99.90;;;9.39;65.76;103857.66;5114412;28;20039;-65
2022/03/18 02:42:13;;;;;;;14.52;7.85;;;9.00;99.90;;;9.44;65.55;103847.31;5114432;28;20036;-65
2022/03/18 02:44:42;;;;;;;14.83;9.60;;;9.10;99.90;;;9.52;65.52;103854.78;5096504;28;20073;-64
2022/03/18 02:47:10;;;;;;;18.13;10.20;;;9.20;99.90;;;9.48;67.31;103860.75;5114396;28;20499;-64
2022/03/18 02:49:39;;;;;;;12.13;10.02;;;9.20;99.90;;;9.42;68.42;103862.19;5114373;28;20092;-65
2022/03/18 02:52:07;;;;;;;14.43;9.68;;;9.10;99.90;;;9.39;69.59;103859.41;5114625;28;20044;-64
2022/03/18 02:54:35;;;;;;;14.52;10.00;;;9.10;99.90;;;9.34;70.06;103859.19;5096325;28;20059;-64
2022/03/18 02:57:05;;;;;;;15.30;9.93;;;9.00;99.90;;;9.29;70.30;103857.16;5096317;28;20126;-64
2022/03/18 02:59:34;;;;;;;12.15;9.85;;;9.00;99.90;;;9.25;70.86;103864.03;5114194;28;20097;-64
2022/03/18 03:02:03;;;;;;;11.10;9.27;;;8.90;99.90;;;9.18;70.97;103866.25;5114096;28;20044;-64
2022/03/18 03:04:32;;;;;;;15.43;9.90;;;8.90;99.90;;;9.18;71.06;103871.53;5114076;28;20035;-64
2022/03/18 03:09:46;;;;;;;13.90;9.77;;;8.90;99.90;;;9.24;69.92;103878.03;5113833;28;20043;-65
2022/03/18 03:12:14;;;;;;;12.02;9.18;;;8.90;99.90;;;9.23;69.50;103873.63;5114017;28;20556;-65
2022/03/18 03:14:44;;;;;;;13.30;10.20;;;8.90;99.90;;;9.15;70.37;103884.63;5114197;28;20066;-64
2022/03/18 03:17:13;;;;;;;13.67;9.00;;;8.80;99.90;;;9.01;70.91;103881.28;5095916;28;20584;-64
2022/03/18 03:19:41;;;;;;;11.95;9.95;;;8.70;99.90;;;8.81;71.35;103887.28;5114082;28;20093;-64
2022/03/18 03:22:09;;;;;;;12.57;10.57;;;8.50;99.90;;;8.62;72.26;103887.16;5113694;28;20035;-64
2022/03/18 03:24:39;;;;;;;13.73;10.07;;;8.30;99.90;;;8.51;71.30;103883.97;5096112;28;20051;-68
2022/03/18 03:27:07;;;;;;;15.05;10.18;;;8.20;99.90;;;8.52;71.41;103875.22;5113753;28;20046;-66
2022/03/18 03:29:35;;;;;;;15.48;9.65;;;8.10;99.90;;;8.48;71.60;103869.72;5113696;28;20548;-66
2022/03/18 03:32:06;;;;;;;15.38;10.02;;;8.10;99.90;;;8.52;72.02;103876.94;5113897;28;20073;-65
2022/03/18 03:34:36;;;;;;;15.65;10.18;;;8.20;99.90;;;8.49;71.71;103874.16;5113654;28;20035;-65
2022/03/18 03:37:05;;;;;;;15.60;9.67;;;8.20;99.90;;;8.31;71.38;103881.09;5113950;28;20097;-64
2022/03/18 03:39:33;;;;;;;11.82;8.23;;;8.00;99.90;;;8.08;70.87;103872.84;5113846;28;20711;-65
2022/03/18 03:42:02;;;;;;;15.60;9.27;;;7.80;99.90;;;8.04;71.02;103880.50;5095721;28;20047;-64
2022/03/18 03:44:30;;;;;;;14.40;7.82;;;7.70;99.90;;;8.01;71.45;103883.88;5113826;28;20032;-64
2022/03/18 03:46:58;;;;;;;13.00;8.77;;;7.70;99.90;;;8.00;71.79;103882.06;5095474;28;20553;-64
2022/03/18 03:49:28;;;;;;;12.73;7.30;;;7.70;99.90;;;7.91;71.81;103880.66;5113492;28;20040;-64
2022/03/18 03:51:57;;;;;;;7.83;7.03;;;7.60;99.90;;;7.90;72.06;103892.94;5113482;28;20077;-64
2022/03/18 03:54:27;;;;;;;7.40;6.18;;;7.60;99.90;;;7.88;71.62;103899.84;5113445;28;20810;-64
2022/03/18 03:56:56;;;;;;;8.20;6.30;;;7.60;99.90;;;7.83;71.59;103895.16;5113795;28;20499;-64
2022/03/18 03:59:24;;;;;;;10.73;7.68;;;7.50;99.90;;;7.85;71.72;103894.41;5113608;28;20066;-64
2022/03/18 04:01:53;;;;;;;13.50;8.13;;;7.50;99.90;;;7.90;71.75;103895.56;5113253;28;20085;-64
2022/03/18 04:04:21;;;;;;;13.23;8.13;;;7.60;99.90;;;7.74;71.48;103863.91;5113921;28;20038;-64
2022/03/18 04:06:52;;;;;;;13.07;7.68;;;7.60;99.90;;;7.80;71.72;103869.53;5113830;28;20104;-64
2022/03/18 04:09:20;;;;;;;10.15;6.97;;;7.70;99.90;;;8.01;71.58;103881.22;5113693;28;20091;-64
2022/03/18 04:11:48;;;;;;;9.60;7.97;;;7.80;99.90;;;8.19;71.56;103890.16;5113261;28;20070;-64
2022/03/18 04:14:17;;;;;;;10.40;7.00;;;7.90;99.90;;;8.23;71.16;103896.47;5095521;28;20058;-64
2022/03/18 04:16:45;;;;;;;12.40;8.07;;;7.90;99.90;;;8.04;71.29;103891.03;5113270;28;20126;-65
2022/03/18 04:19:14;;;;;;;16.42;7.72;;;7.70;99.90;;;8.06;71.18;103898.22;5113195;28;20043;-64
2022/03/18 04:21:43;;;;;;;13.77;7.78;;;7.70;99.90;;;8.23;71.24;103910.59;5114229;28;20047;-64
2022/03/18 04:24:13;;;;;;;13.48;7.85;;;7.80;99.90;;;8.39;70.60;103916.69;5117537;28;20067;-64
2022/03/18 04:26:43;;;;;;;8.00;6.90;;;8.00;99.90;;;8.43;70.75;103918.69;5117470;28;20051;-64
2022/03/18 04:29:12;;;;;;;9.38;6.82;;;8.10;99.90;;;7.76;71.32;103822.75;5117400;28;20460;-65
2022/03/18 04:31:42;;;;;;;10.00;8.00;;;8.10;99.90;;;8.39;71.99;103920.25;5099124;28;20051;-65
2022/03/18 04:34:11;;;;;;;9.52;6.57;;;8.10;99.90;;;8.31;72.99;103918.94;5117038;28;20089;-64
2022/03/18 04:36:39;;;;;;;11.57;7.47;;;8.10;99.90;;;8.43;72.79;103929.25;5117283;28;20060;-64
2022/03/18 04:39:09;;;;;;;10.50;7.22;;;8.10;99.90;;;8.53;72.29;103921.00;5116925;28;20044;-64
2022/03/18 04:41:39;;;;;;;11.70;7.88;;;8.20;99.90;;;8.49;71.95;103917.28;5117376;28;20043;-65
2022/03/18 04:44:07;;;;;;;11.53;7.37;;;8.20;99.90;;;8.39;72.00;103912.34;5117153;28;20039;-64
2022/03/18 04:46:36;;;;;;;8.20;6.90;;;8.10;99.90;;;8.12;72.45;103906.47;5117062;28;20372;-64
2022/03/18 04:49:04;;;;;;;13.13;8.57;;;7.80;99.90;;;7.78;72.79;103918.59;5117243;28;20036;-64
2022/03/18 04:51:32;;;;;;;11.20;8.40;;;7.50;99.90;;;7.50;73.58;103912.63;5116966;28;20262;-65
2022/03/18 04:54:01;;;;;;;8.77;7.47;;;7.20;99.90;;;7.04;74.22;103813.41;5117095;28;20374;-64
2022/03/18 04:59:18;;;;;;;9.00;7.05;;;7.30;99.90;;;7.81;74.32;103923.16;5116646;28;20074;-65
2022/03/18 05:01:47;;;;;;;11.48;7.20;;;7.40;99.90;;;7.88;74.18;103912.09;5116457;28;20529;-64
2022/03/18 05:04:15;;;;;;;12.18;9.18;;;7.50;99.90;;;7.63;73.64;103925.66;5116414;28;20548;-64
2022/03/18 05:06:44;;;;;;;14.77;8.18;;;7.30;99.90;;;7.46;75.11;103931.69;5116714;28;20048;-64
2022/03/18 05:09:12;;;;;;;13.45;8.40;;;7.20;99.90;;;7.46;75.29;103930.78;5116655;28;20460;-64
2022/03/18 05:11:40;;;;;;;12.23;7.90;;;7.10;99.90;;;7.50;75.29;103936.31;5116564;28;20046;-64
2022/03/18 05:14:09;;;;;;;14.75;8.45;;;7.10;99.90;;;7.61;74.56;103939.53;5116297;28;20123;-64
2022/03/18 05:16:42;;;;;;;11.98;7.93;;;7.20;99.90;;;7.68;74.30;103947.91;5116214;28;20088;-64
2022/03/18 05:19:11;;;;;;;10.98;8.07;;;7.30;99.90;;;7.80;74.27;103956.47;5116247;28;20485;-64
2022/03/18 05:21:41;;;;;;;10.70;8.00;;;7.50;99.90;;;7.87;74.20;103963.00;5116079;28;20048;-64
2022/03/18 05:24:09;;;;;;;14.30;8.32;;;7.50;99.90;;;7.96;73.70;103964.44;5116105;28;20055;-64
2022/03/18 05:26:38;;;;;;;15.10;7.72;;;7.60;99.90;;;7.97;73.54;103960.09;5116025;28;20181;-64
2022/03/18 05:29:06;;;;;;;10.32;7.32;;;7.70;99.90;;;7.96;73.81;103968.78;5116558;28;20081;-64
2022/03/18 05:31:36;;;;;;;8.80;6.90;;;7.60;99.90;;;7.89;74.54;103975.47;5116172;28;20389;-64
2022/03/18 05:34:06;;;;;;;8.82;6.65;;;7.60;99.90;;;7.85;74.32;103977.84;5115824;28;20122;-64
2022/03/18 05:36:34;;;;;;;7.90;7.20;;;7.50;99.90;;;7.81;74.80;103984.66;5116366;28;20420;-64
2022/03/18 05:39:03;;;;;;;7.93;6.93;;;7.50;99.90;;;6.98;74.68;103858.69;5115839;28;20528;-64
2022/03/18 05:41:31;;;;;;;9.07;7.38;;;7.40;99.90;;;7.43;75.62;103991.19;5116056;28;20051;-65
2022/03/18 05:44:00;;;;;;;10.20;7.65;;;7.20;99.90;;;7.47;76.20;103998.44;5115980;28;20035;-64
2022/03/18 05:46:28;;;;;;;10.60;8.30;;;7.10;99.90;;;7.49;76.74;104008.22;5097663;28;20416;-64
2022/03/18 05:48:57;;;;;;;10.85;8.23;;;7.20;99.90;;;7.60;76.00;104006.22;5097629;28;20554;-68
2022/03/18 05:51:27;;;;;;;12.30;8.20;;;7.20;99.90;;;7.65;75.55;104010.03;5115511;28;20047;-66
2022/03/18 05:53:55;;;;;;;11.75;9.07;;;7.30;99.90;;;7.64;75.21;104014.41;5115635;28;20051;-64
2022/03/18 05:59:12;;;;;;;9.43;7.88;;;7.20;99.90;;;7.46;76.58;104013.34;5097488;28;20493;-65
2022/03/18 06:01:41;;;;;;;12.90;7.50;;;7.10;99.90;;;7.35;76.80;104006.53;5115364;28;20055;-64
2022/03/18 06:04:10;;;;;;;9.05;6.82;;;7.00;99.90;;;7.36;77.70;104010.97;5115420;28;20382;-65
2022/03/18 06:06:42;;;;;;;7.05;6.35;;;7.00;99.90;;;7.29;77.84;104009.72;5115563;28;20051;-65
2022/03/18 06:11:56;;;;;;;12.43;7.55;;;7.20;99.90;;;7.71;77.95;104005.13;5115223;28;20489;-64
2022/03/18 06:14:27;;;;;;;17.02;8.75;;;7.40;99.90;;;8.01;76.72;104028.84;5115147;28;20051;-64
2022/03/18 06:16:57;;;;;;;12.57;8.10;;;7.60;99.90;;;8.11;76.81;104041.75;5097055;28;20047;-65
2022/03/18 06:19:27;;;;;;;;;;;7.80;99.90;;;8.18;76.29;104012.28;5115512;28;20497;-65
2022/03/18 06:21:58;;;;;;;12.43;7.68;;;8.00;99.90;;;8.40;74.90;104029.31;5115214;28;20018;-64
2022/03/18 06:24:28;;;;;;;16.23;12.05;;;8.10;99.90;;;8.27;73.22;104004.00;5115217;28;20043;-65
2022/03/18 06:26:57;;;;;;;8.55;7.55;;;8.10;99.90;;;8.58;74.02;104038.22;5114752;28;20572;-66
2022/03/18 06:29:26;;;;;;;9.55;7.63;;;8.20;99.90;;;8.72;74.02;104040.81;5114784;28;20032;-66
2022/03/18 06:31:55;;;;;;;20.40;14.50;;;8.40;99.90;;;8.82;73.42;104044.84;5114724;28;20491;-66
2022/03/18 06:34:24;;;;;;;14.10;9.20;;;8.50;99.90;;;9.00;71.50;104056.41;5096604;28;20051;-66
2022/03/18 06:36:55;;;;;;;14.63;9.25;;;8.60;99.90;;;9.28;72.13;104056.09;5114702;28;20555;-71
2022/03/18 06:39:25;;;;;;;14.32;9.35;;;8.90;99.90;;;8.91;70.42;103947.63;5114870;28;20116;-68
2022/03/18 06:41:55;;;;;;;13.32;7.30;;;9.20;99.90;;;9.83;71.34;104064.25;5114505;28;20076;-67
2022/03/18 06:44:24;;;;;;;10.88;7.70;;;9.50;99.90;;;10.09;71.22;104061.97;5114166;28;20063;-65
2022/03/18 06:46:52;;;;;;;10.32;7.47;;;9.70;99.90;;;10.26;69.98;104064.63;5114447;28;20047;-66
2022/03/18 06:49:20;;;;;;;11.93;7.60;;;9.90;99.90;;;10.60;68.34;104070.72;5095680;28;20218;-64
2022/03/18 06:51:49;;;;;;;9.15;6.97;;;10.20;99.90;;;11.00;68.68;104080.47;5114511;28;20075;-68
2022/03/18 06:54:18;;;;;;;12.13;7.35;;;10.60;99.90;;;11.26;68.54;104074.59;5114149;28;20052;-67
2022/03/18 06:56:48;;;;;;;10.63;7.57;;;10.90;99.90;;;11.61;67.78;104079.72;5114064;28;20088;-72
2022/03/18 06:59:16;;;;;;;12.75;8.13;;;11.20;99.90;;;11.83;66.50;104081.56;5114090;28;20069;-69
2022/03/18 07:01:45;;;;;;;12.13;7.50;;;11.40;99.90;;;12.14;65.67;104074.00;5114259;28;20039;-67
2022/03/18 07:04:13;;;;;;;8.85;7.43;;;11.80;99.90;;;12.49;64.84;104093.16;5096143;28;20048;-65
2022/03/18 07:06:42;;;;;;;9.88;7.13;;;12.00;99.90;;;12.69;63.63;104091.28;5092289;28;20048;-67
2022/03/18 07:09:10;;;;;;;9.10;7.40;;;12.30;99.90;;;12.79;62.96;104095.19;5094100;28;20547;-67
2022/03/18 07:11:38;;;;;;;10.98;7.28;;;12.40;99.90;;;12.95;63.12;104098.47;5092166;28;20071;-64
2022/03/18 07:14:08;;;;;;;10.45;7.22;;;12.50;99.90;;;13.11;63.62;104095.56;5092508;28;20052;-67
2022/03/18 07:19:23;;;;;;;15.35;8.55;;;12.80;99.90;;;13.20;61.12;104103.00;5092468;28;20047;-67
2022/03/18 07:21:51;;;;;;;17.27;9.35;;;12.80;99.90;;;13.10;61.06;104104.41;5093882;28;20046;-67
2022/03/18 07:24:19;;;;;;;18.08;8.55;;;12.70;99.90;;;13.11;61.03;104100.91;5093376;28;20109;-67
2022/03/18 07:26:48;;;;;;;20.27;10.70;;;12.70;99.90;;;13.30;58.89;104108.69;5093371;28;20122;-67
2022/03/18 07:29:17;;;;;;;20.17;9.38;;;12.80;99.90;;;13.49;58.39;104105.84;5093589;28;20079;-67
2022/03/18 07:31:46;;;;;;;19.43;9.67;;;13.10;99.90;;;13.70;57.65;104110.13;5093907;28;20047;-67
2022/03/18 07:34:14;;;;;;;22.55;12.90;;;13.30;99.90;;;13.96;57.27;104122.53;5093263;28;20055;-67
2022/03/18 07:36:43;;;;;;;18.33;10.82;;;13.60;99.90;;;14.18;56.85;104128.66;5092228;28;20485;-67
2022/03/18 07:39:11;;;;;;;24.27;11.90;;;13.90;99.90;;;14.33;55.97;104125.59;5093523;28;20489;-67
2022/03/18 07:41:40;;;;;;;17.08;10.32;;;14.10;99.90;;;14.31;56.48;104124.66;5093177;28;20405;-67
2022/03/18 07:44:12;;;;;;;20.60;10.73;;;14.00;99.90;;;14.59;57.29;104134.44;5092045;28;20161;-68
2022/03/18 07:46:42;;;;;;;15.10;9.63;;;14.20;99.90;;;14.75;56.80;104137.59;5092083;28;20442;-67
2022/03/18 07:49:11;;;;;;;20.45;9.68;;;14.40;99.90;;;14.96;56.82;104146.25;5093178;28;20046;-67
2022/03/18 07:51:39;;;;;;;14.70;8.77;;;14.60;99.90;;;15.21;56.35;104145.25;5093140;28;20044;-67
2022/03/18 07:54:08;;;;;;;14.18;9.15;;;14.90;99.90;;;15.49;56.28;104160.28;5093386;28;20122;-67
2022/03/18 07:56:36;;;;;;;16.90;9.57;;;15.10;99.90;;;15.77;55.98;104162.88;5093984;28;20093;-67
2022/03/18 07:59:04;;;;;;;13.18;8.90;;;15.40;99.90;;;16.16;55.03;104171.94;5097082;28;20131;-67
2022/03/18 08:01:35;;;;;;;11.38;8.25;;;15.80;99.90;;;16.50;53.00;104182.59;5097437;28;20044;-67
2022/03/18 08:04:06;;;;;;;12.32;7.57;;;16.20;99.90;;;16.65;51.03;104182.97;5097494;28;20040;-67
2022/03/18 08:06:35;;;;;;;12.75;7.80;;;16.30;99.90;;;16.90;50.88;104190.69;5109841;28;20064;-67
2022/03/18 08:09:04;;;;;;;13.30;7.63;;;16.60;99.90;;;17.24;49.18;104192.34;5117631;28;20126;-67
2022/03/18 08:11:33;;;;;;;18.13;8.10;;;16.90;99.90;;;17.49;47.73;104201.81;5117351;28;20031;-67
2022/03/18 08:14:02;;;;;;;14.82;7.35;;;17.10;99.90;;;17.73;46.83;104205.00;5099301;28;20105;-67
2022/03/18 08:16:30;;;;;;;15.23;7.53;;;17.40;99.90;;;18.00;47.14;104210.88;5099316;28;20055;-67
2022/03/18 08:18:58;;;;;;;16.40;8.85;;;17.60;99.90;;;18.00;46.38;104209.06;5117862;28;20044;-68
2022/03/18 08:21:30;;;;;;;14.50;7.72;;;17.70;99.90;;;18.16;47.51;104207.56;5117565;28;20067;-68
2022/03/18 08:23:58;;;;;;;15.60;7.93;;;17.80;99.90;;;18.04;46.88;104210.94;5117927;28;20054;-68
2022/03/18 08:26:27;;;;;;;20.25;7.75;;;17.80;99.90;;;17.74;46.64;104217.50;5117395;28;20437;-68
2022/03/18 08:28:57;;;;;;;16.55;8.32;;;17.50;99.90;;;17.69;46.66;104214.72;5117300;28;20096;-67
2022/03/18 08:31:26;;;;;;;16.67;8.60;;;17.40;99.90;;;18.02;47.01;104220.72;5116921;28;20130;-67
2022/03/18 08:33:54;;;;;;;20.73;8.88;;;17.60;99.90;;;18.11;45.96;104217.31;5117015;28;20040;-67
2022/03/18 08:36:23;;;;;;;12.07;7.57;;;17.80;99.90;;;18.09;46.00;104224.44;5117269;28;20417;-68
2022/03/18 08:38:53;;;;;;;16.20;8.63;;;17.70;99.90;;;18.36;46.25;104221.31;5117162;28;20050;-67
2022/03/18 08:41:21;;;;;;;17.13;7.90;;;18.00;99.90;;;18.62;46.42;104231.63;5117146;28;20038;-68
2022/03/18 08:43:50;;;;;;;15.13;8.00;;;18.20;99.90;;;18.51;45.96;104221.63;5116991;28;20477;-68
2022/03/18 08:46:18;;;;;;;14.38;8.25;;;18.20;99.90;;;18.44;46.13;104223.31;5117351;28;20035;-67
2022/03/18 08:48:47;;;;;;;19.58;8.63;;;18.20;99.90;;;18.49;46.82;104226.97;5116715;28;20452;-68
2022/03/18 08:51:15;;;;;;;18.42;8.38;;;18.10;99.90;;;18.11;46.46;104227.13;5116656;28;20508;-67
2022/03/18 08:53:44;;;;;;;16.20;8.10;;;18.00;99.90;;;17.88;47.92;104224.03;5116894;28;20071;-68
2022/03/18 08:56:14;;;;;;;15.50;8.50;;;17.60;99.90;;;18.26;48.35;104231.00;5116584;28;20497;-67
2022/03/18 08:58:42;;;;;;;17.93;8.53;;;17.90;99.90;;;17.83;48.57;104236.41;5116652;28;20431;-67
2022/03/18 09:01:12;;;;;;;16.52;8.43;;;17.60;99.90;;;17.83;49.04;104229.28;5116636;28;20519;-67
2022/03/18 09:03:42;;;;;;;14.85;7.32;;;17.60;99.90;;;18.61;49.73;104239.66;5116632;28;20043;-67
2022/03/18 09:06:11;;;;;;;18.08;7.82;;;18.10;99.90;;;19.16;48.93;104244.09;5116111;28;20124;-67
2022/03/18 09:08:40;;;;;;;16.50;7.28;;;18.70;99.90;;;19.49;47.72;104244.59;5116115;28;20443;-67
2022/03/18 09:11:09;;;;;;;15.63;7.50;;;19.20;99.90;;;19.41;48.51;104268.66;5116392;28;20044;-67
2022/03/18 09:13:39;;;;;;;13.50;6.97;;;19.20;99.90;;;19.86;47.22;104259.38;5116569;28;20076;-67
2022/03/18 09:16:07;;;;;;;20.33;7.97;;;19.50;99.90;;;19.46;46.43;104189.03;5116791;28;20044;-68
2022/03/18 09:18:55;;;;;;;20.33;7.85;;;19.70;99.90;;;20.05;47.08;104256.91;5116392;28;20044;-67
2022/03/18 09:21:23;;;;;;;19.40;8.18;;;19.90;99.90;;;20.05;45.40;104261.38;5116082;28;20048;-67
2022/03/18 09:23:51;;;;;;;14.90;8.00;;;20.00;99.90;;;20.00;44.93;104264.00;5115954;28;20446;-67
2022/03/18 09:26:20;;;;;;;17.75;8.20;;;19.90;99.90;;;17.35;49.08;104255.03;5115989;28;20139;-68
2022/03/18 09:28:49;;;;;;;14.68;7.78;;;18.00;99.90;;;18.28;49.40;104266.78;5115962;28;20443;-62
2022/03/18 09:31:18;;;;;;;20.00;7.83;;;18.00;99.90;;;18.73;48.38;104269.38;5115802;28;20497;-62
2022/03/18 09:33:47;;;;;;;13.98;7.35;;;18.40;99.90;;;18.62;49.42;104274.56;5116286;28;20047;-61
2022/03/18 09:36:18;;;;;;;15.10;7.82;;;18.30;99.90;;;19.20;48.61;104286.22;5115572;28;20040;-63
2022/03/18 09:38:48;;;;;;;17.92;7.75;;;18.80;99.90;;;19.33;47.06;104282.84;5116033;28;20040;-62
2022/03/18 09:41:17;;;;;;;17.55;7.85;;;19.10;99.90;;;19.11;47.22;104280.69;5115910;28;20070;-63
2022/03/18 09:43:46;;;;;;;11.93;7.47;;;19.00;99.90;;;19.43;47.52;104284.78;5115501;28;20093;-64
2022/03/18 09:46:16;;;;;;;16.00;7.28;;;19.20;99.90;;;19.15;47.69;104286.13;5097166;28;20039;-63
2022/03/18 09:49:00;;;;;;;22.38;8.07;;;19.10;99.90;;;19.16;48.01;104295.09;5114893;28;20043;-62
2022/03/18 09:51:29;;;;;;;18.15;7.43;;;19.00;99.90;;;18.70;47.56;104297.03;5115262;28;20042;-63
2022/03/18 09:54:27;;;;;;;14.55;7.43;;;18.70;99.90;;;18.89;47.35;104296.47;5115583;28;20062;-63
2022/03/18 09:56:56;;;;;;;23.98;8.45;;;18.80;99.90;;;18.08;48.58;104276.19;5115546;28;20047;-65
2022/03/18 09:59:25;;;;;;;31.52;9.15;;;18.30;99.90;;;18.82;49.48;104297.25;5115435;28;20040;-64
2022/03/18 10:02:29;;;;;;;21.40;9.40;;;18.50;99.90;;;19.05;50.99;104302.09;5115272;28;20464;-64
2022/03/18 10:05:00;;;;;;;12.18;7.40;;;18.70;99.90;;;18.53;49.64;104301.22;5097367;28;20137;-62
2022/03/18 10:07:30;;;;;;;16.20;7.93;;;18.40;99.90;;;18.99;49.72;104296.63;5115686;28;20052;-63
2022/03/18 10:10:04;;;;;;;15.23;7.53;;;18.60;99.90;;;19.45;48.60;104307.19;5097077;28;20041;-63
2022/03/18 10:12:34;;;;;;;16.77;7.50;;;19.10;99.90;;;19.74;47.89;104303.13;5115004;28;20058;-62
2022/03/18 10:15:13;;;;;;;16.98;6.90;;;19.50;99.90;;;19.91;46.77;104304.22;5115017;28;20455;-63
2022/03/18 10:17:46;;;;;;;22.98;6.90;;;19.70;99.90;;;18.77;47.80;104296.28;5115358;28;20042;-62
2022/03/18 10:20:35;;;;;;;14.18;7.20;;;19.00;99.90;;;18.25;49.03;104296.22;5113823;28;20063;-63
2022/03/18 10:23:18;;;;;;;16.48;6.80;;;18.30;99.90;;;17.59;49.34;104198.47;5114527;28;20039;-63
2022/03/18 10:25:53;;;;;;;14.15;6.53;;;18.20;99.90;;;17.30;51.20;104310.25;5114812;28;20086;-63
2022/03/18 10:28:41;;;;;;;17.42;6.97;;;17.30;99.90;;;17.07;52.36;104295.44;5114697;28;20549;-62
2022/03/18 10:31:18;;;;;;;10.75;6.88;;;16.90;99.90;;;17.08;51.35;104306.16;5114743;28;20485;-62
2022/03/18 10:39:32;;;;;;;15.38;7.18;;;17.30;99.90;;;17.20;52.14;104301.94;5114635;28;20100;-63
2022/03/18 10:42:06;;;;;;;10.77;7.07;;;17.10;99.90;;;16.78;52.05;104277.78;5114843;28;20071;-61
2022/03/18 10:44:47;;;;;;;14.75;6.97;;;16.80;99.90;;;16.77;52.83;104300.94;5114738;28;20032;-72
2022/03/18 10:47:27;;;;;;;13.23;6.35;;;16.60;99.90;;;16.96;52.68;104297.81;5114500;28;20039;-64